LAI weather

Lannion-Côte de Granit Airport
Lannion, Brittany, France

Public forecast

Using degrees Celsius for public forecast. Weather courtesy of forecast.io.

Current aviation weather report (METAR) for Lannion-Côte de Granit Airport

Retrieved 2019/10/18 13:30 UTC (0 seconds ago):

LFRO 181330Z AUTO 21018KT 9999 FEW036 SCT080 14/09 Q1005

Aviation forecast (TAF) for Lannion-Côte de Granit Airport

Forecast is more than 12 hours old.

Retrieved 2019/05/15 19:06 UTC (5 months ago):

TAF LFRO 151936Z 1519/1612 CNL